Time;durP1;ratioP1;P1;durP2;ratioP2;P2;SDS_P1;SDS_P2;PMS_P1;PMS_P2;Temp;Humidity;BMP_temperature;BMP_pressure;BME280_temperature;BME280_humidity;BME280_pressure;Samples;Min_cycle;Max_cycle;Signal;HPM_P1;HPM_P2
2024/01/03 00:01:33;;;;;;;39.87;23.13;;;;;;;28.73;71.23;101076.78;4972282;28;69912;-41
2024/01/03 00:04:05;;;;;;;39.55;23.13;;;;;;;28.78;75.08;101077.00;4986256;28;66579;-41
2024/01/03 00:06:36;;;;;;;41.20;24.55;;;;;;;28.86;74.02;101087.66;4970385;28;69664;-41
2024/01/03 00:09:08;;;;;;;39.03;24.70;;;;;;;28.39;72.83;101000.22;4977485;28;67221;-42
2024/01/03 00:11:39;;;;;;;46.80;25.55;;;;;;;28.72;78.33;101053.50;4970131;28;70263;-41
2024/01/03 00:14:32;;;;;;;44.05;26.48;;;;;;;28.96;78.93;101085.38;4983455;28;65603;-41
2024/01/03 00:17:04;;;;;;;46.78;29.08;;;;;;;29.06;75.81;101089.59;4977084;28;69869;-41
2024/01/03 00:19:35;;;;;;;46.05;28.50;;;;;;;29.10;74.70;101096.25;4942427;28;66356;-40
2024/01/03 00:22:13;;;;;;;45.22;29.13;;;;;;;28.67;80.11;101026.31;4966838;28;69905;-41
2024/01/03 00:24:51;;;;;;;44.28;30.27;;;;;;;29.18;74.66;101104.19;4957357;28;66651;-41
2024/01/03 00:27:22;;;;;;;48.20;30.13;;;;;;;29.21;78.51;101106.47;4976881;28;69524;-41
2024/01/03 00:30:06;;;;;;;48.95;29.17;;;;;;;29.02;81.65;101072.09;4969766;28;65155;-40
2024/01/03 00:32:37;;;;;;;45.28;28.98;;;;;;;29.20;77.14;101107.53;4971043;28;70429;-41
2024/01/03 00:35:19;;;;;;;45.90;29.27;;;;;;;29.23;77.48;101112.50;4976409;28;66067;-41
2024/01/03 00:37:49;;;;;;;47.13;29.90;;;;;;;29.27;80.36;101118.34;4937743;28;69491;-42
2024/01/03 00:40:46;;;;;;;49.80;29.20;;;;;;;29.25;81.60;101118.53;4955639;28;66047;-40
2024/01/03 00:43:16;;;;;;;47.22;29.35;;;;;;;29.31;77.27;101112.31;4968473;28;70343;-40
2024/01/03 00:45:48;;;;;;;50.08;30.73;;;;;;;29.18;80.31;101105.00;4966606;28;66305;-40
2024/01/03 00:48:19;;;;;;;51.42;30.33;;;;;;;29.23;82.06;101112.50;4979713;28;70275;-39
2024/01/03 00:50:50;;;;;;;48.05;29.33;;;;;;;29.38;76.12;101132.06;4964739;28;65738;-41
2024/01/03 00:53:20;;;;;;;41.83;30.02;;;;;;;29.42;78.17;101134.38;4956935;28;70417;-39
2024/01/03 00:55:51;;;;;;;51.00;30.17;;;;;;;29.54;74.02;101130.03;4954881;28;65267;-39
2024/01/03 00:58:23;;;;;;;44.07;28.67;;;;;;;29.57;73.42;101137.75;4953083;28;69848;-41
2024/01/03 01:00:53;;;;;;;39.72;27.00;;;;;;;29.62;72.36;101149.59;4950661;28;65403;-39
2024/01/03 01:03:24;;;;;;;40.55;26.05;;;;;;;29.65;72.29;101152.97;4973480;28;70981;-38
2024/01/03 01:05:55;;;;;;;37.50;26.60;;;;;;;29.60;72.11;101129.22;4979474;28;65073;-40
2024/01/03 01:08:26;;;;;;;40.65;25.95;;;;;;;29.63;71.49;101134.25;4965244;28;70491;-39
2024/01/03 01:10:57;;;;;;;39.97;26.30;;;;;;;29.74;71.29;101147.16;4960489;28;66232;-39
2024/01/03 01:13:27;;;;;;;40.03;25.95;;;;;;;29.75;71.41;101143.38;4960524;28;70241;-40
2024/01/03 01:15:58;;;;;;;35.20;25.55;;;;;;;29.78;71.24;101143.00;4977633;28;65234;-40
2024/01/03 01:18:29;;;;;;;35.50;25.67;;;;;;;29.79;70.96;101155.47;4956971;28;68941;-38
2024/01/03 01:20:59;;;;;;;39.72;26.00;;;;;;;29.80;70.72;101145.50;4944922;28;66440;-40
2024/01/03 01:23:30;;;;;;;34.25;24.60;;;;;;;29.82;70.89;101152.34;4951201;28;69446;-40
2024/01/03 01:26:00;;;;;;;32.08;25.73;;;;;;;29.84;70.74;101155.69;4947937;28;66161;-42
2024/01/03 01:28:30;;;;;;;30.45;24.73;;;;;;;29.84;70.82;101153.00;4954449;28;70363;-39
2024/01/03 01:31:01;;;;;;;33.28;24.30;;;;;;;29.86;70.58;101154.66;4945880;28;66333;-39
2024/01/03 01:33:31;;;;;;;29.42;24.27;;;;;;;29.89;70.65;101159.63;4967747;28;69219;-39
2024/01/03 01:36:02;;;;;;;34.72;24.65;;;;;;;29.78;70.68;101143.00;4964040;28;66365;-42
2024/01/03 01:38:33;;;;;;;34.97;24.17;;;;;;;29.78;70.78;101148.41;4966083;28;69657;-41
2024/01/03 01:41:04;;;;;;;34.30;23.02;;;;;;;29.91;70.26;101163.81;4971682;28;65807;-39
2024/01/03 01:43:34;;;;;;;28.92;23.08;;;;;;;29.93;70.75;101166.31;4964166;28;69915;-40
2024/01/03 01:46:05;;;;;;;28.95;23.52;;;;;;;29.90;70.50;101158.63;4945675;28;65818;-39
2024/01/03 01:48:36;;;;;;;26.30;23.50;;;;;;;29.91;70.74;101152.16;4971193;28;69861;-39
2024/01/03 01:51:08;;;;;;;25.67;22.37;;;;;;;29.93;70.17;101156.31;4951753;28;66657;-39
2024/01/03 01:53:39;;;;;;;28.08;23.25;;;;;;;29.96;70.29;101155.06;4968386;28;70953;-38
2024/01/03 01:56:11;;;;;;;30.23;23.88;;;;;;;29.97;70.30;101170.25;4965532;28;66263;-38
2024/01/03 01:58:43;;;;;;;29.17;22.00;;;;;;;29.96;70.59;101149.66;4949938;28;69433;-38
2024/01/03 02:01:14;;;;;;;27.60;22.73;;;;;;;29.93;70.50;101150.09;4949810;28;66174;-40
2024/01/03 02:03:47;;;;;;;27.08;21.67;;;;;;;30.00;70.32;101156.31;4949582;28;68966;-39
2024/01/03 02:06:20;;;;;;;26.35;22.75;;;;;;;29.67;70.48;101094.09;4971151;28;66366;-39
2024/01/03 02:08:51;;;;;;;27.27;22.00;;;;;;;30.04;70.07;101152.16;4965520;28;70221;-40
2024/01/03 02:11:22;;;;;;;27.83;21.43;;;;;;;30.05;70.23;101153.81;4963472;28;65180;-39
2024/01/03 02:13:53;;;;;;;26.77;21.80;;;;;;;30.04;69.86;101146.75;4952234;28;69909;-40
2024/01/03 02:16:23;;;;;;;22.63;20.23;;;;;;;30.09;70.42;101144.25;4938695;28;66495;-39
2024/01/03 02:18:54;;;;;;;24.80;21.40;;;;;;;30.09;70.13;101146.97;4935234;28;70261;-39
2024/01/03 02:21:24;;;;;;;27.23;21.45;;;;;;;30.12;69.86;101143.00;4970947;28;66729;-39
2024/01/03 02:23:55;;;;;;;24.48;20.77;;;;;;;30.13;70.42;101142.78;4950059;28;69665;-40
2024/01/03 02:26:25;;;;;;;22.25;19.90;;;;;;;30.07;70.34;101130.09;4965213;28;66286;-39
2024/01/03 02:28:59;;;;;;;23.92;19.75;;;;;;;30.14;69.94;101136.31;4954776;28;70707;-39
2024/01/03 02:31:30;;;;;;;23.67;20.38;;;;;;;30.15;69.94;101143.41;4973463;28;66960;-38
2024/01/03 02:34:00;;;;;;;24.27;19.77;;;;;;;30.09;69.74;101122.63;4975194;28;70358;-39
2024/01/03 02:36:31;;;;;;;24.95;20.75;;;;;;;30.21;70.12;101139.88;4965871;28;66296;-41
2024/01/03 02:39:03;;;;;;;24.00;19.55;;;;;;;30.13;70.02;101129.25;4951399;28;70607;-39
2024/01/03 02:41:34;;;;;;;20.73;18.83;;;;;;;30.23;70.44;101137.00;4968903;28;65862;-40
2024/01/03 02:44:04;;;;;;;26.58;21.08;;;;;;;30.22;69.93;101117.19;4949755;28;70724;-39
2024/01/03 02:46:35;;;;;;;21.83;19.60;;;;;;;30.28;70.15;101121.78;4943217;28;65954;-40
2024/01/03 02:49:06;;;;;;;24.88;19.27;;;;;;;30.31;70.00;101119.69;4967419;28;70599;-39
2024/01/03 02:51:36;;;;;;;21.50;19.40;;;;;;;30.27;69.70;101111.16;4973354;28;66154;-39
2024/01/03 02:54:07;;;;;;;21.15;19.00;;;;;;;30.34;69.65;101108.44;4975463;28;70158;-39
2024/01/03 02:56:40;;;;;;;22.73;18.83;;;;;;;30.34;69.69;101116.56;4953560;28;66430;-40
2024/01/03 02:59:11;;;;;;;20.92;18.45;;;;;;;30.37;69.96;101113.44;4967826;28;70330;-40
2024/01/03 03:01:42;;;;;;;20.63;18.52;;;;;;;30.38;70.19;101112.41;4963976;28;66433;-40
2024/01/03 03:04:12;;;;;;;23.13;19.30;;;;;;;30.41;70.17;101109.28;4962829;28;70233;-40
2024/01/03 03:06:43;;;;;;;20.95;18.73;;;;;;;30.43;69.89;101096.38;4936667;28;66942;-40
2024/01/03 03:09:14;;;;;;;19.98;17.90;;;;;;;30.46;70.05;101106.75;4971845;28;70778;-38
2024/01/03 03:11:46;;;;;;;23.50;18.55;;;;;;;30.46;70.06;101099.47;4959422;28;66313;-43
2024/01/03 03:14:17;;;;;;;21.33;19.05;;;;;;;30.46;69.84;101087.81;4960550;28;69596;-38
2024/01/03 03:16:48;;;;;;;20.40;18.38;;;;;;;30.41;69.88;101076.78;4976059;28;66647;-38
2024/01/03 03:19:18;;;;;;;19.48;17.50;;;;;;;30.53;69.99;101091.31;4973977;28;70087;-39
2024/01/03 03:21:49;;;;;;;19.50;17.55;;;;;;;30.55;70.00;101083.81;4980335;28;66219;-40
2024/01/03 03:24:20;;;;;;;20.95;18.70;;;;;;;30.58;69.36;101077.97;4978955;28;70293;-39
2024/01/03 03:26:52;;;;;;;20.67;18.33;;;;;;;30.51;69.58;101063.66;4942123;28;65688;-41
2024/01/03 03:29:22;;;;;;;;;;;;;;;30.25;71.09;101078.91;4951223;28;70558;-41
2024/01/03 03:31:53;;;;;;;19.08;17.08;;;;;;;30.58;69.68;101066.31;4975511;28;65008;-39
2024/01/03 03:34:23;;;;;;;18.85;16.95;;;;;;;30.64;69.61;101060.88;4952604;28;70668;-40
2024/01/03 03:36:54;;;;;;;21.00;16.88;;;;;;;30.63;69.35;101058.41;4942911;28;66184;-40
2024/01/03 03:39:24;;;;;;;22.20;17.48;;;;;;;30.61;69.91;101046.94;4938203;28;69811;-39
2024/01/03 03:41:55;;;;;;;19.08;17.17;;;;;;;30.59;69.74;101030.94;4940865;28;66717;-39
2024/01/03 03:44:26;;;;;;;19.17;17.27;;;;;;;30.20;69.40;100962.34;4955373;28;72065;-40
2024/01/03 03:46:57;;;;;;;22.88;17.98;;;;;;;30.77;69.07;101037.50;4942940;28;66153;-39
2024/01/03 03:49:27;;;;;;;18.95;17.10;;;;;;;30.76;68.97;101030.41;4950609;28;70143;-40
2024/01/03 03:51:58;;;;;;;18.38;16.50;;;;;;;30.81;69.04;101038.75;4966051;28;65323;-39
2024/01/03 03:54:28;;;;;;;19.15;17.15;;;;;;;30.85;69.52;101034.59;4967036;28;69226;-40
2024/01/03 03:56:59;;;;;;;19.70;17.60;;;;;;;30.79;69.42;101024.59;4960836;28;66625;-41
2024/01/03 03:59:29;;;;;;;18.85;16.65;;;;;;;30.87;69.55;101033.31;4970383;28;69348;-42
2024/01/03 04:02:00;;;;;;;19.20;17.33;;;;;;;30.88;69.37;101017.91;4950459;28;65040;-40
2024/01/03 04:04:30;;;;;;;19.50;17.55;;;;;;;30.88;69.25;101009.75;4973336;28;69509;-38
2024/01/03 04:07:01;;;;;;;19.95;17.90;;;;;;;30.88;69.40;101002.47;4947146;28;66132;-40
2024/01/03 04:09:31;;;;;;;19.45;17.63;;;;;;;30.93;69.03;100999.94;4967810;28;69719;-40
2024/01/03 04:12:02;;;;;;;21.65;17.27;;;;;;;30.94;69.04;101001.59;4967879;28;66695;-40
2024/01/03 04:14:33;;;;;;;18.73;16.73;;;;;;;30.98;69.28;100995.72;4964983;28;70315;-40
2024/01/03 04:17:03;;;;;;;18.30;16.70;;;;;;;31.03;69.11;100994.03;4968980;28;66857;-40
2024/01/03 04:19:34;;;;;;;22.52;17.23;;;;;;;31.04;69.17;100984.88;4937910;28;69550;-40
2024/01/03 04:22:05;;;;;;;18.10;16.38;;;;;;;31.06;68.99;100980.03;4972769;28;65608;-40
2024/01/03 04:24:36;;;;;;;20.77;15.80;;;;;;;31.03;69.22;100966.94;4963110;28;69426;-40
2024/01/03 04:27:06;;;;;;;17.58;16.13;;;;;;;31.03;68.96;100958.81;4967844;28;66211;-40
2024/01/03 04:29:37;;;;;;;18.02;16.25;;;;;;;31.12;68.85;100964.78;4941659;28;69725;-39
2024/01/03 04:32:07;;;;;;;19.00;16.38;;;;;;;31.14;68.58;100963.50;4958431;28;66189;-40
2024/01/03 04:34:40;;;;;;;17.83;16.15;;;;;;;31.16;68.63;100968.72;4962011;28;70276;-40
2024/01/03 04:37:10;;;;;;;17.67;15.85;;;;;;;31.20;68.42;100960.97;4977739;28;65369;-40
2024/01/03 04:39:41;;;;;;;17.75;16.15;;;;;;;31.21;68.62;100958.06;4976625;28;70699;-39
2024/01/03 04:42:11;;;;;;;17.77;15.95;;;;;;;31.22;68.77;100948.03;4946397;28;66164;-40
2024/01/03 04:44:44;;;;;;;17.98;16.17;;;;;;;31.25;68.56;100940.28;4960164;28;69812;-40
2024/01/03 04:47:15;;;;;;;18.35;16.40;;;;;;;31.26;68.66;100933.00;4961526;28;65599;-40
2024/01/03 04:49:45;;;;;;;20.42;16.50;;;;;;;31.23;68.41;100918.03;4966140;28;70167;-38
2024/01/03 04:52:16;;;;;;;18.48;16.65;;;;;;;31.28;68.69;100920.06;4969522;28;66398;-39
2024/01/03 04:54:46;;;;;;;17.63;15.82;;;;;;;31.31;68.88;100919.59;4982671;28;70362;-38
2024/01/03 04:57:17;;;;;;;19.20;17.15;;;;;;;31.33;68.51;100920.22;4964948;28;65503;-39
2024/01/03 04:59:49;;;;;;;17.58;15.80;;;;;;;31.34;68.22;100913.75;4947164;28;69249;-40
2024/01/03 05:02:19;;;;;;;15.88;14.50;;;;;;;31.34;68.29;100908.31;4965598;28;65250;-40
2024/01/03 05:04:50;;;;;;;17.90;16.10;;;;;;;31.36;68.48;100901.66;4962767;28;69348;-41
2024/01/03 05:07:20;;;;;;;18.45;16.45;;;;;;;31.38;68.35;100893.31;4949280;28;66046;-43
2024/01/03 05:09:51;;;;;;;17.35;15.63;;;;;;;31.40;68.33;100891.22;4948707;28;70351;-39
2024/01/03 05:12:22;;;;;;;17.23;15.50;;;;;;;31.42;68.42;100888.28;4962803;28;66951;-39
2024/01/03 05:14:52;;;;;;;17.10;15.30;;;;;;;31.41;68.54;100878.50;4961707;28;69889;-39
2024/01/03 05:17:23;;;;;;;18.48;16.55;;;;;;;31.43;68.58;100873.69;4973493;28;66133;-41
2024/01/03 05:19:54;;;;;;;16.67;15.27;;;;;;;31.39;68.43;100867.84;4986972;28;69437;-40
2024/01/03 05:22:24;;;;;;;17.77;16.20;;;;;;;31.47;68.35;100875.69;4962763;28;64145;-40
2024/01/03 05:24:55;;;;;;;18.27;16.42;;;;;;;31.35;68.27;100855.78;4986377;28;71632;-40
2024/01/03 05:27:25;;;;;;;18.25;16.35;;;;;;;31.51;68.87;100871.50;4994914;28;65901;-40
2024/01/03 05:29:56;;;;;;;18.35;16.48;;;;;;;31.38;68.43;100836.41;4973290;28;70017;-40
2024/01/03 05:32:28;;;;;;;18.65;16.75;;;;;;;31.53;68.18;100858.53;4985648;28;66707;-40
2024/01/03 05:34:58;;;;;;;17.08;15.48;;;;;;;31.54;68.23;100851.25;4985187;28;70559;-40
2024/01/03 05:37:29;;;;;;;18.20;16.40;;;;;;;31.57;68.21;100857.03;4971489;28;65898;-40
2024/01/03 05:39:59;;;;;;;17.63;15.95;;;;;;;31.59;68.06;100852.22;4957158;28;69774;-39
2024/01/03 05:42:30;;;;;;;17.40;15.73;;;;;;;31.60;68.21;100845.72;4977449;28;66216;-40
2024/01/03 05:45:01;;;;;;;18.20;16.38;;;;;;;31.65;68.48;100849.63;4982559;28;71097;-41
2024/01/03 05:47:31;;;;;;;18.43;16.50;;;;;;;31.62;67.99;100840.06;4982437;28;64807;-38
2024/01/03 05:50:02;;;;;;;18.98;16.98;;;;;;;31.69;68.20;100840.00;4983270;28;69694;-39
2024/01/03 05:52:33;;;;;;;18.77;16.30;;;;;;;31.70;68.13;100836.22;4983653;28;67313;-38
2024/01/03 05:55:06;;;;;;;22.05;17.35;;;;;;;31.73;67.84;100836.63;4981143;28;69712;-42
2024/01/03 05:57:36;;;;;;;19.45;17.52;;;;;;;31.76;67.99;100824.47;4989219;28;65977;-40
2024/01/03 06:00:08;;;;;;;18.73;17.02;;;;;;;31.78;67.79;100825.06;4985358;28;70151;-40
2024/01/03 06:02:38;;;;;;;18.23;16.58;;;;;;;31.77;68.02;100820.72;4990967;28;66489;-39
2024/01/03 06:05:16;;;;;;;22.38;17.58;;;;;;;31.81;68.02;100811.06;4967192;28;70096;-41
2024/01/03 06:07:47;;;;;;;19.30;17.42;;;;;;;31.82;68.04;100818.16;4989114;28;65706;-39
2024/01/03 06:10:18;;;;;;;18.73;16.77;;;;;;;31.80;68.22;100804.81;4969490;28;69308;-39
2024/01/03 06:12:48;;;;;;;18.60;16.58;;;;;;;31.81;67.84;100806.44;4992615;28;65930;-39
2024/01/03 06:15:19;;;;;;;17.42;16.00;;;;;;;31.87;67.92;100812.84;4982464;28;69875;-40
2024/01/03 06:17:50;;;;;;;19.65;16.88;;;;;;;31.89;67.96;100804.50;4968876;28;65527;-40
2024/01/03 06:20:21;;;;;;;18.77;16.90;;;;;;;31.90;67.60;100807.00;4973958;28;70717;-40
2024/01/03 06:22:52;;;;;;;;;;;;;;;31.64;68.91;100801.91;4963892;28;66394;-39
2024/01/03 06:25:22;;;;;;;18.27;16.63;;;;;;;31.77;68.06;100782.75;4961331;28;70643;-40
2024/01/03 06:27:56;;;;;;;18.48;16.58;;;;;;;31.87;67.59;100788.44;4965671;28;65290;-39
2024/01/03 06:30:27;;;;;;;19.75;16.90;;;;;;;31.91;67.95;100783.41;4969050;28;69680;-40
2024/01/03 06:32:57;;;;;;;18.50;16.50;;;;;;;31.94;67.34;100789.22;4959803;28;65788;-40
2024/01/03 06:35:30;;;;;;;18.50;16.63;;;;;;;31.90;67.50;100779.00;4968331;28;69169;-40
2024/01/03 06:38:03;;;;;;;17.35;15.82;;;;;;;31.91;67.42;100773.41;4961657;28;66685;-40
2024/01/03 06:40:34;;;;;;;19.27;17.42;;;;;;;32.01;67.45;100779.13;4969145;28;69868;-40
2024/01/03 06:43:06;;;;;;;19.75;17.73;;;;;;;32.01;67.56;100779.13;4950484;28;65540;-40
2024/01/03 06:45:36;;;;;;;18.48;16.83;;;;;;;32.02;67.46;100778.03;4964627;28;70121;-39
2024/01/03 06:48:07;;;;;;;18.92;17.10;;;;;;;31.99;67.22;100762.22;4977768;28;66165;-40
2024/01/03 06:50:38;;;;;;;25.85;18.17;;;;;;;32.08;67.54;100778.19;4949846;28;68257;-40
2024/01/03 06:53:09;;;;;;;19.67;17.38;;;;;;;32.08;67.36;100770.88;4967112;28;66042;-40
2024/01/03 06:55:39;;;;;;;19.10;17.17;;;;;;;32.06;67.25;100764.84;4946870;28;71118;-39
2024/01/03 06:58:10;;;;;;;18.63;16.95;;;;;;;32.11;67.38;100761.44;4964377;28;65325;-40
2024/01/03 07:00:41;;;;;;;20.15;16.77;;;;;;;32.12;67.34;100757.66;4951006;28;70266;-38
2024/01/03 07:03:11;;;;;;;19.25;17.42;;;;;;;32.15;67.21;100754.47;4955200;28;66282;-41
2024/01/03 07:05:42;;;;;;;18.17;16.38;;;;;;;32.16;67.40;100748.81;4962592;28;70517;-39
2024/01/03 07:08:13;;;;;;;20.33;17.63;;;;;;;32.15;67.31;100752.63;4949949;28;65922;-41
2024/01/03 07:10:44;;;;;;;18.00;16.15;;;;;;;32.18;67.20;100744.00;4966049;28;70271;-39
2024/01/03 07:13:15;;;;;;;18.55;16.85;;;;;;;32.19;67.24;100742.09;4960822;28;66890;-39
2024/01/03 07:15:45;;;;;;;18.92;17.13;;;;;;;32.22;67.11;100747.06;4967887;28;69856;-40
2024/01/03 07:18:16;;;;;;;18.40;16.52;;;;;;;32.22;67.14;100747.88;4969736;28;66699;-38
2024/01/03 07:20:46;;;;;;;18.25;16.45;;;;;;;32.23;67.13;100744.13;4962893;28;68703;-40
2024/01/03 07:23:17;;;;;;;18.42;16.60;;;;;;;32.25;67.16;100735.75;4963057;28;66619;-39
2024/01/03 07:25:48;;;;;;;19.08;17.15;;;;;;;32.21;67.48;100729.16;4960813;28;70479;-39
2024/01/03 07:28:19;;;;;;;18.08;16.33;;;;;;;32.23;67.27;100727.00;4961128;28;66720;-40
2024/01/03 07:30:49;;;;;;;18.93;17.03;;;;;;;32.01;67.20;100689.56;4970541;28;70369;-40
2024/01/03 07:33:20;;;;;;;18.77;16.85;;;;;;;32.30;66.98;100726.91;4969788;28;66086;-40
2024/01/03 07:35:50;;;;;;;18.48;16.85;;;;;;;32.30;66.87;100727.72;4974795;28;70445;-39
2024/01/03 07:38:21;;;;;;;20.08;18.08;;;;;;;32.29;66.99;100720.66;4964912;28;65463;-39
2024/01/03 07:40:52;;;;;;;21.77;16.50;;;;;;;32.33;66.90;100721.84;4936917;28;70043;-40
2024/01/03 07:43:22;;;;;;;21.30;18.67;;;;;;;32.35;67.13;100719.72;4953910;28;65236;-40
2024/01/03 07:45:53;;;;;;;19.50;17.63;;;;;;;32.33;67.09;100721.84;4965249;28;70048;-41
2024/01/03 07:48:23;;;;;;;19.73;17.77;;;;;;;32.28;67.15;100713.56;4971147;28;66980;-40
2024/01/03 07:50:54;;;;;;;19.23;17.53;;;;;;;32.33;67.21;100715.59;4954206;28;69755;-40
2024/01/03 07:53:25;;;;;;;20.20;18.05;;;;;;;32.27;67.01;100701.06;4971059;28;66928;-40
2024/01/03 07:55:55;;;;;;;22.35;19.17;;;;;;;32.38;66.95;100713.81;4946854;28;69399;-40
2024/01/03 07:58:26;;;;;;;20.88;18.73;;;;;;;32.35;67.13;100700.72;4942062;28;66017;-40
2024/01/03 08:00:56;;;;;;;21.35;19.13;;;;;;;32.07;67.04;100659.84;4941042;28;69441;-41
2024/01/03 08:03:27;;;;;;;25.73;18.38;;;;;;;32.42;66.95;100712.28;4950732;28;65732;-40
2024/01/03 08:05:58;;;;;;;20.00;18.03;;;;;;;32.09;66.90;100661.25;4965557;28;71503;-40
2024/01/03 08:08:33;;;;;;;20.50;18.23;;;;;;;32.42;66.91;100719.59;4949786;28;66497;-40
2024/01/03 08:11:05;;;;;;;20.27;17.87;;;;;;;32.39;67.03;100715.47;4950808;28;71760;-39
2024/01/03 08:13:36;;;;;;;19.80;17.70;;;;;;;32.44;67.18;100712.88;4959654;28;65319;-41
2024/01/03 08:16:06;;;;;;;22.92;18.45;;;;;;;32.48;66.76;100713.25;4966230;28;69538;-40
2024/01/03 08:18:38;;;;;;;20.08;17.95;;;;;;;32.42;66.86;100701.41;4961234;28;66943;-39
2024/01/03 08:21:10;;;;;;;19.88;17.95;;;;;;;32.47;66.91;100701.56;4952079;28;69994;-40
2024/01/03 08:23:44;;;;;;;19.27;17.40;;;;;;;32.46;66.90;100713.50;4966729;28;66147;-39
2024/01/03 08:26:15;;;;;;;19.40;17.30;;;;;;;32.49;67.09;100707.59;4963377;28;69771;-39
2024/01/03 08:28:45;;;;;;;20.08;18.02;;;;;;;32.57;66.88;100711.00;4946925;28;66779;-40
2024/01/03 08:31:17;;;;;;;20.15;18.15;;;;;;;32.59;66.98;100708.91;4930736;28;70268;-40
2024/01/03 08:33:47;;;;;;;20.17;18.05;;;;;;;32.57;66.92;100711.84;4963578;28;66557;-40
2024/01/03 08:36:19;;;;;;;21.30;19.15;;;;;;;32.57;66.97;100700.16;4964498;28;69689;-44
2024/01/03 08:38:49;;;;;;;21.20;18.63;;;;;;;32.62;66.66;100702.97;4979628;28;66280;-40
2024/01/03 08:41:20;;;;;;;20.08;18.38;;;;;;;32.61;67.07;100712.22;4951822;28;70434;-40
2024/01/03 08:43:50;;;;;;;20.80;18.83;;;;;;;32.66;67.03;100698.75;4973985;28;66608;-40
2024/01/03 08:46:21;;;;;;;21.55;19.38;;;;;;;32.55;66.71;100680.56;4967233;28;70191;-40
2024/01/03 08:48:51;;;;;;;21.17;18.38;;;;;;;32.68;66.89;100699.31;4965510;28;66275;-40
2024/01/03 08:51:22;;;;;;;21.08;18.80;;;;;;;32.70;66.90;100699.91;4967076;28;70315;-41
2024/01/03 08:53:53;;;;;;;21.20;19.07;;;;;;;32.68;66.79;100707.47;4976983;28;66353;-40
2024/01/03 08:56:24;;;;;;;22.27;19.13;;;;;;;32.72;66.89;100705.94;4965332;28;70498;-40
2024/01/03 08:58:55;;;;;;;21.20;18.65;;;;;;;32.69;67.05;100698.28;4956596;28;66851;-41
2024/01/03 09:01:27;;;;;;;21.95;19.65;;;;;;;32.76;66.68;100703.56;4973017;28;70387;-40
2024/01/03 09:03:58;;;;;;;21.67;19.38;;;;;;;32.78;66.47;100699.56;4974435;28;66751;-40
2024/01/03 09:06:28;;;;;;;21.63;19.35;;;;;;;32.79;66.60;100703.94;4969796;28;70082;-41
2024/01/03 09:08:59;;;;;;;21.80;19.52;;;;;;;32.81;67.05;100709.94;4968986;28;65703;-39
2024/01/03 09:11:30;;;;;;;20.73;18.87;;;;;;;32.66;66.84;100687.88;4942088;28;69072;-41
2024/01/03 09:14:02;;;;;;;22.92;19.95;;;;;;;32.81;66.57;100718.09;4967951;28;65561;-40
2024/01/03 09:16:32;;;;;;;21.37;18.80;;;;;;;32.85;66.82;100719.28;4969546;28;70578;-39
2024/01/03 09:19:03;;;;;;;24.63;21.83;;;;;;;32.61;68.20;100723.06;4952625;28;65784;-40
2024/01/03 09:21:47;;;;;;;27.15;21.80;;;;;;;32.34;70.36;100723.47;4968980;28;69061;-38
2024/01/03 09:24:18;;;;;;;28.15;23.42;;;;;;;31.99;70.27;100678.13;4968855;28;66246;-39
2024/01/03 09:26:49;;;;;;;26.98;23.15;;;;;;;32.20;71.81;100732.91;4973163;28;69756;-39
2024/01/03 09:29:19;;;;;;;24.25;21.60;;;;;;;32.24;71.22;100744.97;4975341;28;66264;-39
2024/01/03 09:31:50;;;;;;;30.70;23.58;;;;;;;32.34;70.37;100739.75;4951255;28;70627;-40
2024/01/03 09:34:21;;;;;;;24.42;20.98;;;;;;;32.52;69.40;100735.34;4974622;28;66531;-40
2024/01/03 09:36:54;;;;;;;22.38;20.17;;;;;;;32.31;69.15;100696.81;4971388;28;70361;-38
2024/01/03 09:39:24;;;;;;;24.13;21.65;;;;;;;32.72;68.68;100752.13;4973139;28;66858;-41
2024/01/03 09:41:55;;;;;;;24.02;21.33;;;;;;;32.76;68.84;100752.47;4978119;28;69999;-40
2024/01/03 09:44:27;;;;;;;24.83;22.20;;;;;;;32.67;68.36;100741.94;4961538;28;65620;-40
2024/01/03 09:46:58;;;;;;;27.90;21.67;;;;;;;32.83;68.19;100759.44;4964896;28;69816;-37
2024/01/03 09:49:29;;;;;;;32.08;21.50;;;;;;;32.83;68.33;100762.16;4970269;28;66265;-39
2024/01/03 09:52:00;;;;;;;28.33;21.70;;;;;;;32.89;68.29;100763.91;4929133;28;70609;-40
2024/01/03 09:54:32;;;;;;;;;;;;;;;32.68;70.03;100767.22;4964225;28;66758;-40
2024/01/03 09:57:04;;;;;;;28.67;21.23;;;;;;;32.86;68.37;100767.13;4976395;28;69461;-38
2024/01/03 09:59:35;;;;;;;31.70;21.65;;;;;;;32.92;68.47;100778.91;4963649;28;66635;-40
2024/01/03 10:02:06;;;;;;;24.23;21.63;;;;;;;32.74;68.31;100746.47;4963643;28;70423;-39
2024/01/03 10:04:37;;;;;;;26.48;21.25;;;;;;;32.92;68.13;100782.47;4961968;28;66720;-40
2024/01/03 10:07:07;;;;;;;26.63;20.35;;;;;;;32.93;68.64;100786.00;4930110;28;69093;-40
2024/01/03 10:09:44;;;;;;;25.42;21.05;;;;;;;32.94;68.93;100783.06;4975294;28;66742;-39
2024/01/03 10:12:17;;;;;;;24.83;19.23;;;;;;;32.96;68.45;100790.13;4947520;28;69224;-40
2024/01/03 10:14:49;;;;;;;39.20;21.00;;;;;;;32.95;68.47;100789.31;4978674;28;65787;-41
2024/01/03 10:17:22;;;;;;;32.58;20.42;;;;;;;32.95;68.57;100797.47;4963980;28;70241;-40
2024/01/03 10:19:53;;;;;;;22.55;19.75;;;;;;;32.85;68.45;100783.66;4975542;28;65686;-40
2024/01/03 10:22:23;;;;;;;27.20;19.20;;;;;;;32.73;70.14;100799.94;4943308;28;70198;-40
2024/01/03 10:24:54;;;;;;;23.52;18.48;;;;;;;32.47;72.52;100799.31;4965504;28;65908;-39
2024/01/03 10:27:24;;;;;;;27.88;19.05;;;;;;;32.29;72.62;100796.66;4972108;28;70123;-38
2024/01/03 10:30:12;;;;;;;21.98;17.80;;;;;;;32.29;73.80;100807.53;4973831;28;65883;-39
2024/01/03 10:32:43;;;;;;;20.48;17.08;;;;;;;32.26;74.07;100826.97;4974942;28;70162;-40
2024/01/03 10:35:15;;;;;;;22.23;16.90;;;;;;;32.13;74.81;100828.00;4962509;28;65025;-41
2024/01/03 10:37:46;;;;;;;22.50;16.92;;;;;;;32.21;74.42;100837.69;4968227;28;69752;-39
2024/01/03 10:40:16;;;;;;;18.07;15.43;;;;;;;32.11;73.17;100832.00;4965198;28;67555;-39
2024/01/03 10:42:53;;;;;;;20.38;16.02;;;;;;;32.15;75.05;100849.44;4966663;28;70192;-39
2024/01/03 10:45:25;;;;;;;18.60;14.45;;;;;;;32.17;73.69;100848.16;4972490;28;67017;-40
2024/01/03 10:47:55;;;;;;;;;;;;;;;31.90;76.04;100863.97;4966893;28;69742;-39
2024/01/03 10:50:26;;;;;;;18.58;14.65;;;;;;;32.07;75.09;100856.06;4969704;28;65546;-39
2024/01/03 10:52:57;;;;;;;16.00;14.32;;;;;;;32.08;75.14;100865.84;4975563;28;69890;-44
2024/01/03 10:55:35;;;;;;;27.55;14.65;;;;;;;31.82;75.49;100835.25;4965407;28;65021;-40
2024/01/03 10:58:13;;;;;;;17.65;13.10;;;;;;;31.64;74.82;100804.59;4977911;28;70618;-37
2024/01/03 11:00:57;;;;;;;17.63;13.80;;;;;;;32.03;75.76;100871.94;4949880;28;66482;-39
2024/01/03 11:03:46;;;;;;;25.83;14.13;;;;;;;31.99;75.65;100878.91;4937058;28;69567;-39
2024/01/03 11:06:22;;;;;;;17.65;12.68;;;;;;;32.11;73.31;100878.13;4940310;28;65164;-40
2024/01/03 11:08:57;;;;;;;17.20;12.60;;;;;;;32.07;74.39;100885.91;4947105;28;70144;-39
2024/01/03 11:11:36;;;;;;;17.90;12.70;;;;;;;31.93;73.38;100863.53;4956298;28;65524;-39
2024/01/03 11:14:19;;;;;;;15.85;11.45;;;;;;;31.94;75.52;100892.31;4946551;28;69878;-40
2024/01/03 11:16:52;;;;;;;16.00;11.40;;;;;;;31.95;75.70;100910.22;4939863;28;65454;-40
2024/01/03 11:19:30;;;;;;;11.55;10.50;;;;;;;31.96;75.39;100911.91;4954820;28;70381;-40
2024/01/03 11:22:05;;;;;;;14.10;10.40;;;;;;;31.90;75.29;100915.50;4958435;28;66899;-40
2024/01/03 11:24:43;;;;;;;12.77;10.20;;;;;;;31.86;75.71;100927.84;4945607;28;70862;-41
2024/01/03 11:27:21;;;;;;;15.82;11.75;;;;;;;31.89;75.28;100932.81;4974670;28;66054;-38
2024/01/03 11:29:55;;;;;;;32.72;19.77;;;;;;;31.90;74.37;100923.63;4946704;28;70256;-40